createdAt,value
2018-06-13T00:01:24.739Z,3.30
2018-06-13T00:03:58.199Z,3.00
2018-06-13T00:06:28.628Z,3.27
2018-06-13T00:08:59.029Z,3.40
2018-06-13T00:11:29.401Z,3.13
2018-06-13T00:14:02.609Z,2.97
2018-06-13T00:16:33.029Z,3.27
2018-06-13T00:19:03.405Z,3.03
2018-06-13T00:21:33.722Z,3.30
2018-06-13T00:24:04.606Z,3.07
2018-06-13T00:26:35.073Z,3.10
2018-06-13T00:29:05.379Z,2.83
2018-06-13T00:31:35.733Z,2.93
2018-06-13T00:34:09.126Z,2.90
2018-06-13T00:36:39.498Z,2.70
2018-06-13T00:39:09.927Z,2.93
2018-06-13T00:41:40.293Z,2.90
2018-06-13T00:44:10.587Z,2.70
2018-06-13T00:46:40.906Z,3.07
2018-06-13T00:49:11.357Z,2.90
2018-06-13T00:51:41.748Z,3.03
2018-06-13T00:54:18.640Z,2.70
2018-06-13T00:56:49.007Z,3.23
2018-06-13T00:59:19.371Z,3.23
2018-06-13T01:01:49.741Z,3.43
2018-06-13T01:04:20.174Z,2.90
2018-06-13T01:06:50.332Z,2.80
2018-06-13T01:09:20.610Z,3.00
2018-06-13T01:11:51.081Z,3.17
2018-06-13T01:14:25.257Z,3.50
2018-06-13T01:16:55.534Z,3.50
2018-06-13T01:19:25.993Z,3.17
2018-06-13T01:21:56.518Z,3.50
2018-06-13T01:24:29.916Z,3.47
2018-06-13T01:27:00.134Z,3.40
2018-06-13T01:29:30.508Z,3.07
2018-06-13T01:32:05.490Z,3.60
2018-06-13T01:34:35.956Z,3.60
2018-06-13T01:37:06.022Z,3.20
2018-06-13T01:39:36.593Z,3.27
2018-06-13T01:42:06.870Z,2.90
2018-06-13T01:44:37.320Z,3.23
2018-06-13T01:47:07.672Z,2.83
2018-06-13T01:49:38.060Z,2.67
2018-06-13T01:52:08.136Z,2.80
2018-06-13T01:54:38.385Z,3.00
2018-06-13T01:57:08.705Z,3.10
2018-06-13T01:59:39.146Z,2.83
2018-06-13T02:02:10.557Z,2.80
2018-06-13T02:04:41.109Z,2.70
2018-06-13T02:07:11.320Z,3.20
2018-06-13T02:09:41.628Z,2.90
2018-06-13T02:12:15.178Z,2.60
2018-06-13T02:14:45.492Z,2.93
2018-06-13T02:17:15.818Z,3.17
2018-06-13T02:19:46.251Z,2.70
2018-06-13T02:22:19.815Z,3.30
2018-06-13T02:24:50.240Z,2.90
2018-06-13T02:27:20.647Z,2.83
2018-06-13T02:29:51.045Z,3.50
2018-06-13T02:32:21.351Z,3.17
2018-06-13T02:34:51.727Z,3.10
2018-06-13T02:37:22.141Z,2.97
2018-06-13T02:39:52.484Z,2.63
2018-06-13T02:42:22.954Z,2.83
2018-06-13T02:44:53.190Z,3.10
2018-06-13T02:47:23.609Z,3.30
2018-06-13T02:49:53.936Z,2.87
2018-06-13T02:52:27.598Z,3.00
2018-06-13T02:54:58.045Z,2.80
2018-06-13T02:57:28.337Z,3.37
2018-06-13T02:59:58.639Z,2.67
2018-06-13T03:02:30.155Z,2.93
2018-06-13T03:05:00.605Z,2.87
2018-06-13T03:07:31.044Z,2.77
2018-06-13T03:10:01.473Z,2.73
2018-06-13T03:12:35.837Z,2.77
2018-06-13T03:15:06.198Z,4.07
2018-06-13T03:17:36.630Z,2.70
2018-06-13T03:20:07.009Z,3.00
2018-06-13T03:22:37.402Z,3.07
2018-06-13T03:25:08.060Z,2.80
2018-06-13T03:27:38.423Z,2.90
2018-06-13T03:30:09.218Z,2.83
2018-06-13T03:32:39.650Z,3.60
2018-06-13T03:35:10.150Z,3.00
2018-06-13T03:37:40.544Z,2.80
2018-06-13T03:40:10.972Z,3.20
2018-06-13T03:42:44.384Z,3.47
2018-06-13T03:45:15.143Z,3.40
2018-06-13T03:47:45.589Z,3.20
2018-06-13T03:50:15.945Z,3.07
2018-06-13T03:52:51.145Z,2.77
2018-06-13T03:55:22.241Z,3.00
2018-06-13T03:57:53.261Z,3.20
2018-06-13T04:00:23.807Z,3.53
2018-06-13T04:02:57.460Z,3.23
2018-06-13T04:05:27.641Z,3.53
2018-06-13T04:07:58.052Z,3.40
2018-06-13T04:10:28.517Z,3.80
2018-06-13T04:12:59.668Z,3.73
2018-06-13T04:15:31.236Z,3.70
2018-06-13T04:18:01.739Z,4.90
2018-06-13T04:20:32.150Z,3.93
2018-06-13T04:23:03.250Z,4.80
2018-06-13T04:25:33.836Z,3.47
2018-06-13T04:28:04.138Z,3.10
2018-06-13T04:30:34.475Z,3.80
2018-06-13T04:33:06.651Z,3.40
2018-06-13T04:35:37.275Z,3.33
2018-06-13T04:38:07.654Z,4.87
2018-06-13T04:40:38.394Z,5.03
2018-06-13T04:43:14.185Z,5.10
2018-06-13T04:45:44.561Z,5.10
2018-06-13T04:48:14.914Z,6.37
2018-06-13T04:50:45.284Z,6.30
2018-06-13T04:53:15.842Z,6.53
2018-06-13T04:55:46.684Z,7.50
2018-06-13T04:58:17.208Z,8.30
2018-06-13T05:00:47.722Z,8.60
2018-06-13T05:03:18.814Z,8.60
2018-06-13T05:05:49.233Z,5.37
2018-06-13T05:08:19.673Z,4.80
2018-06-13T05:10:52.732Z,3.30
2018-06-13T05:13:22.905Z,3.60
2018-06-13T05:15:53.305Z,3.17
2018-06-13T05:18:23.665Z,3.50
2018-06-13T05:21:15.458Z,3.50
2018-06-13T05:23:46.184Z,3.40
2018-06-13T05:26:17.305Z,2.77
2018-06-13T05:28:48.019Z,2.90
2018-06-13T05:31:21.917Z,3.30
2018-06-13T05:33:52.339Z,2.90
2018-06-13T05:36:22.698Z,2.50
2018-06-13T05:38:53.267Z,3.20
2018-06-13T05:41:25.001Z,2.90
2018-06-13T05:43:55.537Z,2.67
2018-06-13T05:46:25.827Z,2.50
2018-06-13T05:48:56.384Z,2.47
2018-06-13T05:51:26.763Z,2.70
2018-06-13T05:53:57.306Z,2.57
2018-06-13T05:56:27.685Z,2.93
2018-06-13T05:59:01.356Z,2.60
2018-06-13T06:01:41.026Z,2.27
2018-06-13T06:04:16.815Z,2.43
2018-06-13T06:06:54.319Z,2.50
2018-06-13T06:09:25.802Z,2.90
2018-06-13T06:11:59.422Z,2.90
2018-06-13T06:14:29.901Z,3.10
2018-06-13T06:17:00.573Z,3.00
2018-06-13T06:19:31.988Z,2.93
2018-06-13T06:22:03.038Z,2.70
2018-06-13T06:24:34.490Z,3.10
2018-06-13T06:27:04.950Z,2.83
2018-06-13T06:29:35.229Z,2.83
2018-06-13T06:32:05.570Z,3.43
2018-06-13T06:34:36.625Z,3.13
2018-06-13T06:37:07.943Z,3.60
2018-06-13T06:39:38.418Z,3.00
2018-06-13T06:42:12.180Z,3.50
2018-06-13T06:44:49.415Z,3.97
2018-06-13T06:47:20.812Z,3.80
2018-06-13T06:49:51.692Z,2.83
2018-06-13T06:52:25.445Z,3.13
2018-06-13T06:54:56.602Z,3.27
2018-06-13T06:57:27.045Z,3.20
2018-06-13T06:59:57.573Z,3.03
2018-06-13T07:02:28.397Z,3.27
2018-06-13T07:04:59.258Z,3.57
2018-06-13T07:07:35.043Z,3.23
2018-06-13T07:10:08.217Z,3.37
2018-06-13T07:12:40.902Z,3.03
2018-06-13T07:15:11.943Z,2.87
2018-06-13T07:17:43.477Z,2.83
2018-06-13T07:20:17.926Z,3.30
2018-06-13T07:22:49.151Z,2.87
2018-06-13T07:25:20.230Z,3.17
2018-06-13T07:27:51.280Z,2.83
2018-06-13T07:33:17.096Z,2.73
2018-06-13T07:35:47.689Z,2.87
2018-06-13T07:38:21.669Z,2.97
2018-06-13T07:40:52.633Z,3.00
2018-06-13T07:43:23.075Z,2.93
2018-06-13T07:45:53.544Z,2.60
2018-06-13T07:48:23.976Z,3.03
2018-06-13T07:50:58.191Z,3.40
2018-06-13T07:53:28.583Z,2.57
2018-06-13T07:55:59.276Z,2.93
2018-06-13T07:58:29.853Z,2.77
2018-06-13T08:01:03.247Z,3.10
2018-06-13T08:03:33.772Z,3.23
2018-06-13T08:06:04.189Z,3.13
2018-06-13T08:08:35.047Z,2.73
2018-06-13T08:11:05.505Z,2.97
2018-06-13T08:13:35.926Z,3.30
2018-06-13T08:16:06.294Z,3.30
2018-06-13T08:18:38.272Z,3.13
2018-06-13T08:21:10.298Z,3.50
2018-06-13T08:29:20.410Z,2.80
2018-06-13T08:34:54.235Z,3.05
2018-06-13T08:37:26.715Z,2.83
2018-06-13T08:40:14.073Z,3.20
2018-06-13T08:42:46.617Z,3.35
2018-06-13T08:49:08.029Z,2.80
2018-06-13T08:51:41.931Z,3.30
2018-06-13T08:54:16.512Z,3.30
2018-06-13T08:56:51.802Z,3.03
2018-06-13T08:59:23.779Z,3.25
2018-06-13T09:01:54.698Z,3.17
2018-06-13T09:04:25.709Z,2.87
2018-06-13T09:06:56.855Z,3.00
2018-06-13T09:09:27.642Z,3.65
2018-06-13T09:11:58.889Z,3.33
2018-06-13T09:14:29.814Z,3.17
2018-06-13T09:17:01.979Z,3.17
2018-06-13T09:19:33.283Z,3.42
2018-06-13T09:22:04.193Z,3.50
2018-06-13T09:24:35.142Z,3.17
2018-06-13T09:27:06.178Z,3.40
2018-06-13T09:29:37.313Z,3.25
2018-06-13T09:32:09.115Z,3.83
2018-06-13T09:34:40.053Z,3.12
2018-06-13T09:37:11.094Z,3.10
2018-06-13T09:39:42.012Z,3.15
2018-06-13T09:42:13.120Z,2.83
2018-06-13T09:44:44.010Z,3.20
2018-06-13T09:47:15.137Z,3.50
2018-06-13T09:49:46.091Z,3.70
2018-06-13T09:52:17.429Z,4.80
2018-06-13T09:54:48.702Z,3.97
2018-06-13T09:57:20.051Z,4.28
2018-06-13T09:59:53.730Z,4.10
2018-06-13T10:02:24.778Z,3.47
2018-06-13T10:04:58.080Z,3.87
2018-06-13T10:07:30.863Z,3.25
2018-06-13T10:10:04.746Z,3.47
2018-06-13T10:12:35.798Z,3.60
2018-06-13T10:15:06.574Z,3.00
2018-06-13T10:17:37.463Z,2.97
2018-06-13T10:20:09.241Z,3.33
2018-06-13T10:22:40.902Z,3.10
2018-06-13T10:25:11.972Z,2.87
2018-06-13T10:27:43.216Z,3.00
2018-06-13T10:30:14.725Z,2.80
2018-06-13T10:32:45.032Z,3.00
2018-06-13T10:35:15.379Z,2.60
2018-06-13T10:37:45.752Z,2.63
2018-06-13T10:40:21.294Z,2.60
2018-06-13T10:42:52.848Z,2.97
2018-06-13T10:45:23.475Z,2.60
2018-06-13T10:47:53.934Z,2.63
2018-06-13T10:50:25.423Z,2.47
2018-06-13T10:52:55.676Z,2.37
2018-06-13T10:55:26.215Z,2.60
2018-06-13T10:57:56.676Z,2.60
2018-06-13T11:00:28.226Z,2.60
2018-06-13T11:05:50.618Z,2.33
2018-06-13T11:08:28.277Z,2.47
2018-06-13T11:10:58.696Z,2.30
2018-06-13T11:13:29.270Z,2.43
2018-06-13T11:15:59.673Z,2.40
2018-06-13T11:18:32.005Z,2.47
2018-06-13T11:21:03.377Z,2.20
2018-06-13T11:23:33.773Z,2.97
2018-06-13T11:26:04.333Z,3.47
2018-06-13T11:28:35.448Z,2.73
2018-06-13T11:31:07.785Z,2.67
2018-06-13T11:33:38.426Z,2.50
2018-06-13T11:36:08.887Z,2.60
2018-06-13T11:38:39.260Z,2.53
2018-06-13T11:41:09.700Z,2.03
2018-06-13T11:43:40.107Z,2.60
2018-06-13T11:46:11.105Z,2.23
2018-06-13T11:48:41.713Z,2.30
2018-06-13T11:51:13.450Z,2.30
2018-06-13T11:53:43.799Z,2.13
2018-06-13T11:56:16.685Z,2.20
2018-06-13T11:58:56.274Z,2.10
2018-06-13T12:01:27.753Z,2.03
2018-06-13T12:03:58.155Z,2.20
2018-06-13T12:06:28.477Z,2.30
2018-06-13T12:08:58.616Z,2.40
2018-06-13T12:11:30.012Z,2.00
2018-06-13T12:14:00.270Z,2.67
2018-06-13T12:16:30.723Z,1.97
2018-06-13T12:19:01.017Z,2.10
2018-06-13T12:21:31.566Z,2.43
2018-06-13T12:24:01.823Z,1.93
2018-06-13T12:26:32.001Z,2.60
2018-06-13T12:29:02.273Z,2.47
2018-06-13T12:31:32.613Z,2.00
2018-06-13T12:34:03.119Z,2.37
2018-06-13T12:36:33.478Z,2.20
2018-06-13T12:39:03.502Z,1.80
2018-06-13T12:41:37.189Z,2.10
2018-06-13T12:44:07.601Z,2.03
2018-06-13T12:46:37.900Z,1.93
2018-06-13T12:49:08.269Z,1.77
2018-06-13T12:51:41.959Z,2.67
2018-06-13T12:54:12.369Z,2.80
2018-06-13T12:56:42.817Z,1.80
2018-06-13T12:59:13.724Z,1.90
2018-06-13T13:01:44.109Z,2.10
2018-06-13T13:04:14.445Z,1.80
2018-06-13T13:06:44.809Z,2.10
2018-06-13T13:09:15.272Z,1.67
2018-06-13T13:11:45.677Z,2.13
2018-06-13T13:14:16.010Z,1.60
2018-06-13T13:16:46.381Z,2.10
2018-06-13T13:19:16.813Z,2.17
2018-06-13T13:21:47.191Z,2.40
2018-06-13T13:24:17.656Z,2.40
2018-06-13T13:26:48.072Z,2.10
2018-06-13T13:29:21.537Z,2.20
2018-06-13T13:31:51.761Z,2.10
2018-06-13T13:34:22.010Z,2.17
2018-06-13T13:36:52.192Z,2.10
2018-06-13T13:39:22.787Z,2.60
2018-06-13T13:41:53.028Z,2.10
2018-06-13T13:44:23.307Z,2.33
2018-06-13T13:46:53.629Z,2.10
2018-06-13T13:49:27.295Z,2.67
2018-06-13T13:51:57.610Z,1.80
2018-06-13T13:54:27.859Z,1.80
2018-06-13T13:56:59.296Z,1.73
2018-06-13T13:59:29.609Z,1.70
2018-06-13T14:01:59.983Z,1.80
2018-06-13T14:04:30.249Z,1.50
2018-06-13T14:07:00.709Z,1.50
2018-06-13T14:09:34.378Z,1.40
2018-06-13T14:12:04.710Z,1.80
2018-06-13T14:14:35.621Z,1.80
2018-06-13T14:17:05.986Z,1.73
2018-06-13T14:19:40.908Z,1.70
2018-06-13T14:22:11.222Z,1.67
2018-06-13T14:24:41.696Z,1.83
2018-06-13T14:27:12.782Z,1.87
2018-06-13T14:29:46.902Z,2.10
2018-06-13T14:32:17.370Z,1.93
2018-06-13T14:34:47.739Z,1.80
2018-06-13T14:37:18.279Z,2.10
2018-06-13T14:39:50.446Z,2.10
2018-06-13T14:42:20.875Z,2.20
2018-06-13T14:44:51.195Z,2.20
2018-06-13T14:47:21.526Z,2.10
2018-06-13T14:49:51.936Z,2.37
2018-06-13T14:52:22.221Z,2.00
2018-06-13T14:54:52.699Z,2.47
2018-06-13T14:57:23.144Z,3.53
2018-06-13T14:59:54.557Z,1.70
2018-06-13T15:02:24.941Z,2.20
2018-06-13T15:04:55.159Z,1.93
2018-06-13T15:07:25.640Z,1.90
2018-06-13T15:09:55.956Z,2.10
2018-06-13T15:12:26.327Z,2.00
2018-06-13T15:14:56.761Z,1.90
2018-06-13T15:17:27.309Z,1.97
2018-06-13T15:20:01.138Z,2.20
2018-06-13T15:22:31.617Z,1.90
2018-06-13T15:25:02.080Z,1.50
2018-06-13T15:27:32.395Z,1.40
2018-06-13T15:30:03.589Z,1.80
2018-06-13T15:32:33.933Z,1.70
2018-06-13T15:35:04.402Z,1.70
2018-06-13T15:37:34.736Z,1.80
2018-06-13T15:40:08.258Z,1.80
2018-06-13T15:42:38.779Z,1.70
2018-06-13T15:45:08.935Z,2.00
2018-06-13T15:47:39.172Z,1.40
2018-06-13T15:50:10.743Z,1.60
2018-06-13T15:52:41.166Z,1.40
2018-06-13T15:55:11.564Z,1.53
2018-06-13T15:57:42.005Z,1.77
2018-06-13T16:00:13.429Z,1.60
2018-06-13T16:02:43.808Z,2.13
2018-06-13T16:05:14.322Z,2.00
2018-06-13T16:07:44.592Z,2.03
2018-06-13T16:10:16.050Z,2.43
2018-06-13T16:12:46.339Z,4.57
2018-06-13T16:15:16.781Z,2.33
2018-06-13T16:17:47.137Z,1.93
2018-06-13T16:20:20.537Z,2.00
2018-06-13T16:22:50.933Z,2.40
2018-06-13T16:25:21.102Z,2.13
2018-06-13T16:27:51.543Z,2.40
2018-06-13T16:30:22.775Z,2.40
2018-06-13T16:32:53.009Z,2.43
2018-06-13T16:35:23.524Z,2.17
2018-06-13T16:37:53.893Z,1.90
2018-06-13T16:40:27.625Z,2.00
2018-06-13T16:42:58.156Z,2.10
2018-06-13T16:45:28.407Z,1.77
2018-06-13T16:47:58.629Z,1.80
2018-06-13T16:50:45.103Z,1.63
2018-06-13T16:53:14.799Z,1.70
2018-06-13T16:55:45.162Z,1.73
2018-06-13T16:58:15.506Z,2.10
2018-06-13T17:00:47.144Z,2.80
2018-06-13T17:03:17.566Z,2.50
2018-06-13T17:05:47.869Z,2.90
2018-06-13T17:08:18.165Z,2.63
2018-06-13T17:10:49.740Z,2.33
2018-06-13T17:13:20.251Z,3.80
2018-06-13T17:15:50.685Z,2.43
2018-06-13T17:18:21.201Z,2.20
2018-06-13T17:20:54.611Z,2.47
2018-06-13T17:23:24.897Z,2.37
2018-06-13T17:25:55.858Z,3.67
2018-06-13T17:28:26.262Z,2.90
2018-06-13T17:30:59.873Z,2.40
2018-06-13T17:33:31.104Z,2.80
2018-06-13T17:36:01.324Z,2.70
2018-06-13T17:38:31.658Z,2.13
2018-06-13T17:41:02.093Z,2.27
2018-06-13T17:43:32.355Z,2.17
2018-06-13T17:46:02.901Z,2.40
2018-06-13T17:48:33.322Z,2.23
2018-06-13T17:51:03.658Z,2.10
2018-06-13T17:53:34.933Z,2.37
2018-06-13T17:56:05.182Z,2.33
2018-06-13T17:58:35.436Z,2.43
2018-06-13T18:01:05.873Z,2.33
2018-06-13T18:03:36.378Z,2.30
2018-06-13T18:06:06.795Z,2.30
2018-06-13T18:08:37.322Z,2.63
2018-06-13T18:11:07.663Z,2.33
2018-06-13T18:13:38.066Z,2.73
2018-06-13T18:16:08.481Z,1.90
2018-06-13T18:18:39.774Z,2.03
2018-06-13T18:21:10.101Z,1.77
2018-06-13T18:23:40.390Z,1.93
2018-06-13T18:26:10.713Z,2.30
2018-06-13T18:28:41.128Z,2.10
2018-06-13T18:31:11.434Z,2.10
2018-06-13T18:33:43.930Z,2.13
2018-06-13T18:36:15.661Z,2.10
2018-06-13T18:38:49.682Z,2.10
2018-06-13T18:41:19.933Z,2.40
2018-06-13T18:43:51.032Z,3.00
2018-06-13T18:46:21.483Z,2.47
2018-06-13T18:48:54.803Z,2.90
2018-06-13T18:51:25.813Z,2.90
2018-06-13T18:53:56.105Z,2.70
2018-06-13T18:56:27.105Z,3.43
2018-06-13T18:59:00.788Z,3.83
2018-06-13T19:01:31.816Z,7.90
2018-06-13T19:04:02.659Z,8.00
2018-06-13T19:06:32.946Z,7.43
2018-06-13T19:09:03.294Z,7.03
2018-06-13T19:11:33.818Z,5.50
2018-06-13T19:17:07.084Z,2.73
2018-06-13T19:19:39.127Z,2.40
2018-06-13T19:22:10.510Z,1.80
2018-06-13T19:24:45.322Z,2.13
2018-06-13T19:27:16.472Z,2.30
2018-06-13T19:29:51.194Z,2.80
2018-06-13T19:32:21.499Z,2.90
2018-06-13T19:34:51.820Z,2.90
2018-06-13T19:37:22.317Z,3.27
2018-06-13T19:39:53.707Z,5.70
2018-06-13T19:42:24.088Z,5.47
2018-06-13T19:44:54.432Z,6.30
2018-06-13T19:47:24.674Z,6.37
2018-06-13T19:49:55.041Z,4.13
2018-06-13T19:52:25.319Z,2.77
2018-06-13T19:55:00.988Z,3.90
2018-06-13T19:57:31.468Z,3.47
2018-06-13T20:00:05.758Z,3.63
2018-06-13T20:02:36.074Z,3.50
2018-06-13T20:07:58.765Z,3.40
2018-06-13T20:10:29.320Z,3.50
2018-06-13T20:15:56.609Z,2.92
2018-06-13T20:21:20.801Z,4.20
2018-06-13T20:23:50.995Z,4.17
2018-06-13T20:29:35.013Z,3.45
2018-06-13T20:32:05.055Z,3.20
2018-06-13T20:34:35.249Z,3.57
2018-06-13T20:37:05.711Z,3.60
2018-06-13T20:39:36.271Z,3.47
2018-06-13T20:42:06.722Z,3.10
2018-06-13T20:44:36.857Z,2.83
2018-06-13T20:47:06.914Z,2.90
2018-06-13T20:49:40.690Z,3.00
2018-06-13T20:52:10.946Z,3.53
2018-06-13T20:54:41.865Z,3.57
2018-06-13T20:57:12.232Z,2.87
2018-06-13T20:59:43.588Z,2.67
2018-06-13T21:02:13.717Z,2.40
2018-06-13T21:04:44.153Z,2.67
2018-06-13T21:07:14.534Z,2.70
2018-06-13T21:09:45.918Z,2.50
2018-06-13T21:12:16.204Z,2.60
2018-06-13T21:14:46.811Z,3.30
2018-06-13T21:17:17.306Z,2.77
2018-06-13T21:19:48.884Z,3.17
2018-06-13T21:22:19.318Z,3.03
2018-06-13T21:24:49.612Z,3.10
2018-06-13T21:27:19.829Z,3.43
2018-06-13T21:29:53.084Z,2.90
2018-06-13T21:32:23.398Z,2.87
2018-06-13T21:34:53.905Z,2.70
2018-06-13T21:37:24.216Z,2.23
2018-06-13T21:39:54.784Z,2.40
2018-06-13T21:42:25.222Z,2.57
2018-06-13T21:44:55.838Z,2.63
2018-06-13T21:47:26.303Z,2.20
2018-06-13T21:49:56.740Z,2.50
2018-06-13T21:52:27.164Z,2.30
2018-06-13T21:54:57.681Z,3.27
2018-06-13T21:57:27.986Z,3.37
2018-06-13T21:59:58.553Z,4.03
2018-06-13T22:02:28.905Z,3.63
2018-06-13T22:04:59.389Z,3.40
2018-06-13T22:07:29.879Z,3.30
2018-06-13T22:10:00.319Z,3.30
2018-06-13T22:12:30.638Z,2.90
2018-06-13T22:15:00.905Z,2.60
2018-06-13T22:17:31.357Z,2.43
2018-06-13T22:20:01.848Z,2.67
2018-06-13T22:22:32.336Z,3.20
2018-06-13T22:25:02.721Z,3.87
2018-06-13T22:27:33.109Z,5.20
2018-06-13T22:30:04.019Z,8.70
2018-06-13T22:32:34.601Z,5.70
2018-06-13T22:35:04.894Z,5.17
2018-06-13T22:37:35.471Z,4.07
2018-06-13T22:40:05.757Z,4.40
2018-06-13T22:42:36.180Z,5.07
2018-06-13T22:45:06.473Z,4.47
2018-06-13T22:47:36.840Z,3.73
2018-06-13T22:50:08.089Z,3.77
2018-06-13T22:52:38.425Z,3.33
2018-06-13T22:55:08.904Z,2.90
2018-06-13T22:57:39.192Z,2.57
2018-06-13T23:00:11.790Z,2.20
2018-06-13T23:02:41.922Z,2.20
2018-06-13T23:05:12.275Z,2.43
2018-06-13T23:07:42.755Z,2.70
2018-06-13T23:10:13.117Z,2.47
2018-06-13T23:12:43.409Z,2.10
2018-06-13T23:15:14.295Z,2.30
2018-06-13T23:17:44.621Z,2.67
2018-06-13T23:20:15.145Z,2.27
2018-06-13T23:22:45.628Z,2.30
2018-06-13T23:25:16.111Z,2.50
2018-06-13T23:27:46.361Z,2.33
2018-06-13T23:30:16.818Z,2.20
2018-06-13T23:32:47.204Z,2.43
2018-06-13T23:35:17.514Z,2.53
2018-06-13T23:37:47.790Z,2.10
2018-06-13T23:40:18.213Z,2.40
2018-06-13T23:42:48.523Z,2.27
2018-06-13T23:45:18.970Z,2.23
2018-06-13T23:47:50.361Z,2.50
2018-06-13T23:50:20.817Z,2.50
2018-06-13T23:52:51.356Z,2.37
2018-06-13T23:55:21.560Z,2.60
2018-06-13T23:57:52.966Z,2.40
